Time;durP1;ratioP1;P1;durP2;ratioP2;P2;SDS_P1;SDS_P2;PMS_P1;PMS_P2;Temp;Humidity;BMP_temperature;BMP_pressure;BME280_temperature;BME280_humidity;BME280_pressure;Samples;Min_cycle;Max_cycle;Signal;HPM_P1;HPM_P2
2022/01/17 00:02:24;;;;;;;18.58;2.83;;;;;;;;;;5130687;27;20066;-62
2022/01/17 00:04:50;;;;;;;15.98;1.73;;;;;;;;;;5127842;27;20114;-61
2022/01/17 00:07:16;;;;;;;18.13;1.52;;;;;;;;;;5127732;27;20129;-61
2022/01/17 00:09:43;;;;;;;7.38;1.33;;;;;;;;;;5131174;27;20043;-60
2022/01/17 00:12:09;;;;;;;12.13;1.48;;;;;;;;;;5125844;27;20036;-61
2022/01/17 00:14:40;;;;;;;10.02;1.45;;;;;;;;;;5130245;27;20404;-61
2022/01/17 00:19:44;;;;;;;7.68;1.30;;;;;;;;;;5128730;27;20050;-61
2022/01/17 00:22:14;;;;;;;12.80;1.73;;;;;;;;;;5131330;27;20035;-60
2022/01/17 00:24:40;;;;;;;11.43;1.38;;;;;;;;;;5130758;27;20039;-62
2022/01/17 00:27:06;;;;;;;12.20;1.65;;;;;;;;;;5129893;27;20047;-61
2022/01/17 00:29:35;;;;;;;13.57;1.60;;;;;;;;;;5131520;27;20074;-59
2022/01/17 00:32:01;;;;;;;9.77;1.42;;;;;;;;;;5130215;27;20047;-60
2022/01/17 00:34:28;;;;;;;14.38;2.83;;;;;;;;;;5129527;27;20126;-61
2022/01/17 00:36:54;;;;;;;20.27;2.65;;;;;;;;;;5131492;27;20053;-60
2022/01/17 00:39:20;;;;;;;11.25;1.50;;;;;;;;;;5129276;27;20035;-60
2022/01/17 00:41:46;;;;;;;11.57;1.27;;;;;;;;;;5130097;27;20106;-60
2022/01/17 00:44:15;;;;;;;16.25;2.63;;;;;;;;;;5128121;27;21522;-61
2022/01/17 00:46:42;;;;;;;13.07;1.45;;;;;;;;;;5130715;27;20628;-60
2022/01/17 00:49:08;;;;;;;14.95;2.03;;;;;;;;;;5130834;27;20055;-62
2022/01/17 00:51:34;;;;;;;11.23;1.85;;;;;;;;;;5131406;27;20079;-61
2022/01/17 00:54:00;;;;;;;16.27;2.00;;;;;;;;;;5129741;27;20464;-61
2022/01/17 00:56:26;;;;;;;8.68;1.95;;;;;;;;;;5130482;27;20061;-62
2022/01/17 00:58:52;;;;;;;11.15;1.65;;;;;;;;;;5129505;27;20403;-61
2022/01/17 01:01:19;;;;;;;8.75;1.42;;;;;;;;;;5130848;27;20043;-60
2022/01/17 01:03:45;;;;;;;15.18;1.98;;;;;;;;;;5129885;27;20522;-61
2022/01/17 01:06:11;;;;;;;13.45;1.80;;;;;;;;;;5128803;27;20393;-59
2022/01/17 01:08:37;;;;;;;14.27;1.40;;;;;;;;;;5130395;27;20130;-60
2022/01/17 01:11:03;;;;;;;13.43;1.90;;;;;;;;;;5125483;27;20096;-61
2022/01/17 01:13:30;;;;;;;13.73;1.77;;;;;;;;;;5125276;27;20452;-60
2022/01/17 01:19:05;;;;;;;8.60;2.17;;;;;;;;;;5119156;27;20043;-59
2022/01/17 01:29:31;;;;;;;14.43;1.90;;;;;;;;;;5130562;28;20504;-60
2022/01/17 01:32:02;;;;;;;12.50;1.60;;;;;;;;;;5126526;28;20035;-60
2022/01/17 01:34:35;;;;;;;13.25;1.88;;;;;;;;;;5128982;27;20050;-60
2022/01/17 01:37:04;;;;;;;15.93;2.42;;;;;;;;;;5130032;27;20038;-59
2022/01/17 01:39:31;;;;;;;14.75;1.80;;;;;;;;;;5130021;27;20494;-61
2022/01/17 01:41:57;;;;;;;13.07;1.98;;;;;;;;;;5128213;28;20158;-60
2022/01/17 01:44:24;;;;;;;13.30;1.75;;;;;;;;;;5128451;27;20031;-60
2022/01/17 01:46:51;;;;;;;16.73;1.92;;;;;;;;;;5129503;28;20404;-61
2022/01/17 01:49:18;;;;;;;12.80;1.65;;;;;;;;;;5127770;28;20055;-59
2022/01/17 01:51:44;;;;;;;16.85;2.28;;;;;;;;;;5127631;28;20047;-62
2022/01/17 01:54:11;;;;;;;19.33;1.65;;;;;;;;;;5130368;28;20122;-60
2022/01/17 01:56:43;;;;;;;13.25;1.50;;;;;;;;;;5128719;27;20034;-60
2022/01/17 01:59:10;;;;;;;13.85;2.15;;;;;;;;;;5129154;28;20390;-61
2022/01/17 02:01:36;;;;;;;17.83;2.00;;;;;;;;;;5127711;28;20043;-61
2022/01/17 02:04:03;;;;;;;20.05;2.47;;;;;;;;;;5113555;28;20042;-59
2022/01/17 02:06:29;;;;;;;11.68;2.00;;;;;;;;;;5130341;28;20135;-59
2022/01/17 02:08:55;;;;;;;16.20;2.15;;;;;;;;;;5129188;28;20070;-61
2022/01/17 02:11:21;;;;;;;13.70;1.90;;;;;;;;;;5127497;28;20089;-61
2022/01/17 02:13:47;;;;;;;14.90;1.77;;;;;;;;;;5127825;27;20436;-61
2022/01/17 02:16:15;;;;;;;15.68;2.03;;;;;;;;;;5132237;27;20459;-60
2022/01/17 02:18:43;;;;;;;10.93;1.45;;;;;;;;;;5130899;27;20109;-62
2022/01/17 02:23:42;;;;;;;12.15;1.50;;;;;;;;;;5133162;27;20122;-60
2022/01/17 02:26:08;;;;;;;15.93;2.05;;;;;;;;;;5129236;27;20504;-59
2022/01/17 02:28:36;;;;;;;16.08;2.00;;;;;;;;;;5133340;27;20092;-62
2022/01/17 02:31:04;;;;;;;15.68;1.88;;;;;;;;;;5133045;27;20118;-60
2022/01/17 02:33:30;;;;;;;17.92;2.05;;;;;;;;;;5134259;27;20035;-61
2022/01/17 02:35:56;;;;;;;18.25;1.88;;;;;;;;;;5130596;27;20393;-61
2022/01/17 02:38:22;;;;;;;12.88;1.63;;;;;;;;;;5132328;27;20526;-60
2022/01/17 02:40:51;;;;;;;12.23;1.83;;;;;;;;;;5131995;27;20492;-61
2022/01/17 02:43:20;;;;;;;13.82;2.17;;;;;;;;;;5132354;27;20043;-60
2022/01/17 02:48:20;;;;;;;18.10;1.65;;;;;;;;;;5131475;27;20051;-61
2022/01/17 02:50:46;;;;;;;16.10;2.55;;;;;;;;;;5131143;27;20408;-60
2022/01/17 02:53:12;;;;;;;13.63;1.55;;;;;;;;;;5130923;27;20549;-61
2022/01/17 02:55:40;;;;;;;16.10;2.00;;;;;;;;;;5133995;27;20035;-61
2022/01/17 02:58:06;;;;;;;17.95;2.72;;;;;;;;;;5131866;27;20046;-59
2022/01/17 03:00:32;;;;;;;17.80;2.30;;;;;;;;;;5132175;27;20516;-61
2022/01/17 03:02:58;;;;;;;19.92;2.55;;;;;;;;;;5117993;27;20043;-60
2022/01/17 03:05:25;;;;;;;15.27;2.15;;;;;;;;;;5132437;27;20042;-61
2022/01/17 03:07:51;;;;;;;14.57;1.90;;;;;;;;;;5131617;27;20035;-60
2022/01/17 03:13:06;;;;;;;19.27;2.35;;;;;;;;;;5128540;27;20055;-60
2022/01/17 03:15:33;;;;;;;22.13;2.08;;;;;;;;;;5127584;27;20405;-60
2022/01/17 03:17:59;;;;;;;14.73;2.38;;;;;;;;;;5128485;27;20054;-61
2022/01/17 03:20:25;;;;;;;17.35;1.92;;;;;;;;;;5130059;27;20560;-59
2022/01/17 03:22:51;;;;;;;11.18;1.98;;;;;;;;;;5130799;27;20144;-62
2022/01/17 03:25:17;;;;;;;12.35;2.10;;;;;;;;;;5129795;27;20129;-60
2022/01/17 03:27:43;;;;;;;18.08;2.08;;;;;;;;;;5130606;27;20489;-60
2022/01/17 03:30:09;;;;;;;14.73;2.22;;;;;;;;;;5132920;27;20097;-61
2022/01/17 03:32:35;;;;;;;12.10;2.60;;;;;;;;;;5130458;27;20477;-62
2022/01/17 03:35:01;;;;;;;19.35;2.00;;;;;;;;;;5129923;27;20043;-60
2022/01/17 03:37:28;;;;;;;17.15;2.25;;;;;;;;;;5131627;27;20050;-60
2022/01/17 03:39:54;;;;;;;19.80;1.92;;;;;;;;;;5133222;27;20043;-61
2022/01/17 03:42:21;;;;;;;15.98;1.67;;;;;;;;;;5130200;27;20444;-61
2022/01/17 03:44:47;;;;;;;13.95;1.95;;;;;;;;;;5131126;27;20039;-61
2022/01/17 03:47:13;;;;;;;13.50;2.47;;;;;;;;;;5128224;27;20100;-61
2022/01/17 03:49:40;;;;;;;18.58;2.28;;;;;;;;;;5131197;27;20099;-60
2022/01/17 03:52:06;;;;;;;19.55;2.20;;;;;;;;;;5131146;27;20045;-60
2022/01/17 03:54:32;;;;;;;18.05;2.10;;;;;;;;;;5132380;27;20172;-61
2022/01/17 03:56:59;;;;;;;11.20;1.73;;;;;;;;;;5131057;27;20043;-61
2022/01/17 03:59:25;;;;;;;14.82;1.83;;;;;;;;;;5130554;27;20446;-60
2022/01/17 04:01:51;;;;;;;12.00;1.95;;;;;;;;;;5130231;27;20114;-60
2022/01/17 04:04:17;;;;;;;14.70;1.45;;;;;;;;;;5130699;27;20489;-60
2022/01/17 04:06:43;;;;;;;14.20;2.03;;;;;;;;;;5130609;27;20545;-59
2022/01/17 04:09:09;;;;;;;13.02;1.65;;;;;;;;;;5131175;27;20075;-60
2022/01/17 04:11:36;;;;;;;14.98;1.70;;;;;;;;;;5129801;27;20042;-61
2022/01/17 04:14:02;;;;;;;15.30;1.80;;;;;;;;;;5131604;27;20065;-62
2022/01/17 04:16:28;;;;;;;14.23;2.85;;;;;;;;;;5130807;27;20050;-61
2022/01/17 04:18:55;;;;;;;13.85;1.92;;;;;;;;;;5127171;27;20051;-60
2022/01/17 04:21:21;;;;;;;13.40;1.58;;;;;;;;;;5129748;27;20043;-61
2022/01/17 04:23:47;;;;;;;14.05;1.70;;;;;;;;;;5130189;27;20439;-61
2022/01/17 04:26:14;;;;;;;11.30;2.20;;;;;;;;;;5131524;27;20088;-62
2022/01/17 04:28:40;;;;;;;15.02;1.50;;;;;;;;;;5129581;27;20046;-59
2022/01/17 04:31:06;;;;;;;13.60;1.75;;;;;;;;;;5130596;27;20394;-60
2022/01/17 04:33:33;;;;;;;9.73;2.17;;;;;;;;;;5130130;27;20031;-61
2022/01/17 04:36:00;;;;;;;14.82;2.15;;;;;;;;;;5131786;27;20130;-60
2022/01/17 04:38:26;;;;;;;16.10;1.70;;;;;;;;;;5126867;27;20550;-58
2022/01/17 04:41:02;;;;;;;10.13;1.58;;;;;;;;;;5131553;27;20477;-60
2022/01/17 04:46:04;;;;;;;16.15;1.70;;;;;;;;;;5131017;27;20039;-60
2022/01/17 04:48:30;;;;;;;16.75;2.03;;;;;;;;;;5128765;27;20058;-61
2022/01/17 04:50:58;;;;;;;9.93;1.40;;;;;;;;;;5129511;27;20047;-61
2022/01/17 04:53:25;;;;;;;13.23;1.60;;;;;;;;;;5130170;27;20035;-61
2022/01/17 04:55:51;;;;;;;8.52;1.30;;;;;;;;;;5116779;27;20485;-61
2022/01/17 04:58:17;;;;;;;16.75;1.75;;;;;;;;;;5130211;27;20039;-62
2022/01/17 05:00:46;;;;;;;18.77;3.28;;;;;;;;;;5130277;27;20544;-61
2022/01/17 05:03:15;;;;;;;13.82;1.90;;;;;;;;;;5129094;27;20035;-61
2022/01/17 05:05:41;;;;;;;13.65;2.33;;;;;;;;;;5131184;27;20397;-61
2022/01/17 05:08:07;;;;;;;13.20;1.95;;;;;;;;;;5126914;27;20081;-61
2022/01/17 05:10:33;;;;;;;14.82;2.42;;;;;;;;;;5115666;27;20071;-61
2022/01/17 05:12:59;;;;;;;16.70;1.60;;;;;;;;;;5127698;27;20544;-61
2022/01/17 05:15:35;;;;;;;13.18;1.65;;;;;;;;;;5113918;27;20030;-59
2022/01/17 05:20:47;;;;;;;14.63;2.05;;;;;;;;;;5131064;27;20043;-60
2022/01/17 05:23:13;;;;;;;19.23;2.15;;;;;;;;;;5128671;27;20043;-59
2022/01/17 05:25:39;;;;;;;12.65;1.50;;;;;;;;;;5128923;27;20599;-61
2022/01/17 05:28:05;;;;;;;14.70;1.88;;;;;;;;;;5129551;28;20035;-61
2022/01/17 05:30:32;;;;;;;18.65;2.55;;;;;;;;;;5130132;28;20080;-60
2022/01/17 05:33:01;;;;;;;16.27;2.53;;;;;;;;;;5128344;28;20130;-60
2022/01/17 05:35:27;;;;;;;12.38;2.13;;;;;;;;;;5128142;28;20130;-62
2022/01/17 05:37:53;;;;;;;14.93;2.50;;;;;;;;;;5129577;28;20065;-60
2022/01/17 05:40:19;;;;;;;17.20;2.50;;;;;;;;;;5130871;28;20035;-61
2022/01/17 05:42:45;;;;;;;16.15;2.53;;;;;;;;;;5129312;28;20091;-60
2022/01/17 05:45:12;;;;;;;14.57;3.33;;;;;;;;;;5129352;28;20038;-61
2022/01/17 05:47:38;;;;;;;17.73;3.47;;;;;;;;;;5128708;28;20093;-60
2022/01/17 05:50:06;;;;;;;15.10;2.30;;;;;;;;;;5130502;27;20043;-61
2022/01/17 05:52:32;;;;;;;13.77;3.20;;;;;;;;;;5134550;27;20055;-58
2022/01/17 05:54:59;;;;;;;17.40;3.58;;;;;;;;;;5133661;27;20131;-61
2022/01/17 05:57:25;;;;;;;22.55;3.70;;;;;;;;;;5132490;27;20039;-62
2022/01/17 05:59:51;;;;;;;16.38;2.75;;;;;;;;;;5133137;27;20389;-59
2022/01/17 06:02:17;;;;;;;13.70;3.60;;;;;;;;;;5134693;27;20042;-60
2022/01/17 06:04:43;;;;;;;22.48;4.28;;;;;;;;;;5133426;27;20084;-61
2022/01/17 06:07:09;;;;;;;17.40;3.50;;;;;;;;;;5123809;27;20513;-60
2022/01/17 06:09:35;;;;;;;19.00;4.13;;;;;;;;;;5099125;27;20038;-60
2022/01/17 06:12:02;;;;;;;26.35;4.63;;;;;;;;;;5132789;27;20035;-60
2022/01/17 06:14:29;;;;;;;21.13;4.68;;;;;;;;;;5131971;27;20473;-61
2022/01/17 06:16:55;;;;;;;19.00;4.80;;;;;;;;;;5132254;27;20078;-59
2022/01/17 06:19:21;;;;;;;22.80;5.03;;;;;;;;;;5131650;27;20081;-61
2022/01/17 06:21:47;;;;;;;17.95;6.03;;;;;;;;;;5134155;27;20038;-60
2022/01/17 06:24:13;;;;;;;22.38;5.40;;;;;;;;;;5133177;27;20039;-61
2022/01/17 06:26:40;;;;;;;17.50;5.00;;;;;;;;;;5134181;27;20447;-60
2022/01/17 06:29:07;;;;;;;23.25;5.72;;;;;;;;;;5127134;27;20043;-59
2022/01/17 06:31:33;;;;;;;18.40;5.25;;;;;;;;;;5132977;27;20031;-61
2022/01/17 06:33:59;;;;;;;23.13;5.97;;;;;;;;;;5132657;27;20537;-60
2022/01/17 06:36:25;;;;;;;27.67;6.13;;;;;;;;;;5132065;27;20027;-60
2022/01/17 06:38:51;;;;;;;14.25;4.70;;;;;;;;;;5131760;27;20552;-59
2022/01/17 06:41:18;;;;;;;19.13;6.35;;;;;;;;;;5133302;27;20127;-61
2022/01/17 06:43:44;;;;;;;15.57;5.22;;;;;;;;;;5131165;27;20419;-61
2022/01/17 06:46:11;;;;;;;27.45;5.65;;;;;;;;;;5132536;27;20393;-59
2022/01/17 06:48:37;;;;;;;16.33;5.60;;;;;;;;;;5131921;27;20062;-60
2022/01/17 06:51:03;;;;;;;17.40;5.45;;;;;;;;;;5129062;27;20050;-60
2022/01/17 06:53:32;;;;;;;24.05;5.85;;;;;;;;;;5131011;27;20623;-60
2022/01/17 06:55:59;;;;;;;19.75;5.50;;;;;;;;;;5131754;27;20042;-60
2022/01/17 06:58:26;;;;;;;18.27;5.75;;;;;;;;;;5133743;27;20040;-60
2022/01/17 07:00:52;;;;;;;24.17;5.82;;;;;;;;;;5129278;27;20477;-60
2022/01/17 07:03:18;;;;;;;27.05;5.80;;;;;;;;;;5131570;27;20485;-59
2022/01/17 07:05:44;;;;;;;18.90;6.00;;;;;;;;;;5129813;27;20404;-61
2022/01/17 07:08:10;;;;;;;21.55;6.10;;;;;;;;;;5132544;27;20039;-61
2022/01/17 07:10:36;;;;;;;27.88;6.03;;;;;;;;;;5132810;27;20046;-61
2022/01/17 07:13:02;;;;;;;29.50;7.03;;;;;;;;;;5132974;27;20485;-62
2022/01/17 07:15:28;;;;;;;26.25;5.63;;;;;;;;;;5133169;27;20039;-61
2022/01/17 07:17:54;;;;;;;23.45;5.70;;;;;;;;;;5132263;27;20034;-61
2022/01/17 07:20:20;;;;;;;22.45;6.00;;;;;;;;;;5133534;27;20044;-62
2022/01/17 07:22:46;;;;;;;21.90;6.10;;;;;;;;;;5132834;27;20039;-60
2022/01/17 07:25:12;;;;;;;20.75;5.70;;;;;;;;;;5132714;27;20497;-63
2022/01/17 07:27:40;;;;;;;22.95;5.35;;;;;;;;;;5132113;27;20066;-60
2022/01/17 07:30:07;;;;;;;23.60;5.10;;;;;;;;;;5132694;27;20047;-61
2022/01/17 07:32:33;;;;;;;31.20;5.55;;;;;;;;;;5132712;27;20089;-61
2022/01/17 07:34:59;;;;;;;24.02;4.70;;;;;;;;;;5132242;27;20038;-59
2022/01/17 07:37:25;;;;;;;27.00;4.95;;;;;;;;;;5131947;27;20442;-60
2022/01/17 07:39:51;;;;;;;22.90;5.20;;;;;;;;;;5121014;27;20378;-60
2022/01/17 07:42:17;;;;;;;16.45;4.68;;;;;;;;;;5129887;27;20050;-62
2022/01/17 07:44:51;;;;;;;24.88;4.65;;;;;;;;;;5129817;27;20118;-60
2022/01/17 07:47:24;;;;;;;21.88;4.65;;;;;;;;;;5131698;27;20046;-60
2022/01/17 07:49:50;;;;;;;;;;;5.90;99.90;;;;;;5132306;27;20031;-60
2022/01/17 07:52:16;;;;;;;22.30;4.10;;;;;;;;;;5132408;27;20382;-61
2022/01/17 07:54:47;;;;;;;20.67;4.15;;;;;;;;;;5134929;27;20058;-61
2022/01/17 07:57:14;;;;;;;33.75;4.85;;;;;;;;;;5132029;27;20442;-61
2022/01/17 07:59:40;;;;;;;17.30;3.92;;;;;;;;;;5130700;27;20077;-60
2022/01/17 08:02:06;;;;;;;23.65;3.63;;;;;;;;;;5130620;27;20480;-61
2022/01/17 08:04:33;;;;;;;21.27;5.68;;;;;;;;;;5128639;27;20031;-61
2022/01/17 08:06:59;;;;;;;27.27;4.05;;;;;;;;;;5112315;27;20164;-60
2022/01/17 08:09:29;;;;;;;29.38;4.20;;;;;;;;;;5132230;27;20046;-61
2022/01/17 08:11:56;;;;;;;26.17;4.28;;;;;;;;;;5121499;27;20154;-60
2022/01/17 08:14:23;;;;;;;19.27;3.53;;;;;;;;;;5132248;27;20107;-61
2022/01/17 08:16:49;;;;;;;23.05;3.80;;;;;;;;;;5132150;27;20038;-62
2022/01/17 08:19:15;;;;;;;23.08;3.90;;;;;;;;;;5114213;27;20043;-61
2022/01/17 08:21:41;;;;;;;27.45;4.07;;;;;;;;;;5132062;27;20035;-60
2022/01/17 08:24:07;;;;;;;23.90;4.22;;;;;;;;;;5132094;27;20035;-61
2022/01/17 08:26:34;;;;;;;27.15;4.05;;;;;;;;;;5132123;27;20164;-61
2022/01/17 08:29:00;;;;;;;25.85;3.83;;;;;;;;;;5131864;27;20442;-60
2022/01/17 08:31:26;;;;;;;23.27;3.55;;;;;;;;;;5132088;27;20035;-60
2022/01/17 08:33:52;;;;;;;21.75;3.22;;;;;;;;;;5132313;27;20042;-60
2022/01/17 08:36:20;;;;;;;31.00;3.10;;;;;;;;;;5131742;27;20039;-62
2022/01/17 08:38:49;;;;;;;23.98;3.47;;;;;;;;;;5131560;27;20047;-61
2022/01/17 08:41:17;;;;;;;19.80;2.75;;;;;;;;;;5131585;27;20043;-61
2022/01/17 08:43:44;;;;;;;25.27;3.40;;;;;;;;;;5132049;27;20040;-62
2022/01/17 08:46:10;;;;;;;25.70;3.72;;;;;;;;;;5131630;27;20046;-61
2022/01/17 08:48:36;;;;;;;24.45;3.85;;;;;;;;;;5131637;27;20096;-61
2022/01/17 08:51:02;;;;;;;28.13;4.28;;;;;;;;;;5131200;27;20049;-62
2022/01/17 08:53:28;;;;;;;18.77;2.90;;;;;;;;;;5131594;27;20087;-60
2022/01/17 08:55:54;;;;;;;26.38;3.38;;;;;;;;;;5131656;27;20031;-60
2022/01/17 08:58:20;;;;;;;25.88;3.53;;;;;;;;;;5131644;27;20042;-60
2022/01/17 09:00:46;;;;;;;14.50;3.65;;;;;;;;;;5131525;27;20161;-62
2022/01/17 09:03:13;;;;;;;25.27;3.08;;;;;;;;;;5131650;27;20539;-60
2022/01/17 09:05:39;;;;;;;22.67;3.20;;;;;;;;;;5131499;27;20055;-62
2022/01/17 09:08:08;;;;;;;22.73;3.30;;;;;;;;;;5131392;27;20042;-60
2022/01/17 09:10:34;;;;;;;24.73;3.55;;;;;;;;;;5131224;27;21057;-61
2022/01/17 09:13:00;;;;;;;24.48;3.53;;;;;;;;;;5131068;27;20038;-61
2022/01/17 09:15:26;;;;;;;26.35;3.53;;;;;;;;;;5131578;27;20509;-59
2022/01/17 09:17:53;;;;;;;18.25;3.90;;;;;;;;;;5131251;27;20079;-60
2022/01/17 09:20:19;;;;;;;20.75;3.17;;;;;;;;;;5131446;27;20118;-60
2022/01/17 09:22:45;;;;;;;22.73;3.20;;;;;;;;;;5130807;27;20031;-61
2022/01/17 09:25:12;;;;;;;19.45;2.95;;;;;;;;;;5131330;27;20393;-61
2022/01/17 09:27:38;;;;;;;21.73;3.33;;;;;;;;;;5131061;27;20374;-59
2022/01/17 09:30:05;;;;;;;28.70;2.97;;;;;;;;;;5131157;28;20038;-60
2022/01/17 09:32:31;;;;;;;30.25;5.15;;;;;;;;;;5130744;28;20035;-60
2022/01/17 09:34:57;;;;;;;24.23;4.40;;;;;;;;;;5131306;28;20039;-60
2022/01/17 09:37:23;;;;;;;21.48;3.45;;;;;;;;;;5130919;28;20110;-60
2022/01/17 09:39:49;;;;;;;22.65;3.80;;;;;;;;;;5130814;28;20041;-60
2022/01/17 09:42:16;;;;;;;29.85;3.45;;;;;;;;;;5131071;28;20493;-61
2022/01/17 09:44:42;;;;;;;26.50;3.55;;;;;;;;;;5130681;28;20052;-60
2022/01/17 09:47:09;;;;;;;29.45;3.33;;;;;;;;;;5131111;28;20039;-60
2022/01/17 09:49:41;;;;;;;27.58;3.83;;;;;;;;;;5130828;27;20054;-61
2022/01/17 09:52:25;;;;;;;23.33;3.58;;;;;;;;;;5131150;27;20084;-61
2022/01/17 09:54:52;;;;;;;23.90;4.22;;;;;;;;;;5130731;27;20527;-61
2022/01/17 09:57:19;;;;;;;22.23;2.90;;;;;;;;;;5130923;28;20043;-60
2022/01/17 09:59:45;;;;;;;21.42;3.13;;;;;;;;;;5130863;28;20039;-61
2022/01/17 10:02:12;;;;;;;28.42;3.30;;;;;;;;;;5131006;28;20477;-61
2022/01/17 10:04:39;;;;;;;25.65;2.95;;;;;;;;;;5130704;28;20038;-62
2022/01/17 10:07:06;;;;;;;26.75;4.45;;;;;;;;;;5130917;28;20031;-61
2022/01/17 10:09:33;;;;;;;27.30;3.80;;;;;;;;;;5130893;27;20081;-62
2022/01/17 10:12:00;;;;;;;21.90;3.65;;;;;;;;;;5130780;28;20488;-63
2022/01/17 10:14:28;;;;;;;30.17;4.43;;;;;;;;;;5130972;27;20039;-61
2022/01/17 10:16:54;;;;;;;27.30;3.38;;;;;;;;;;5130275;28;20047;-62
2022/01/17 10:19:22;;;;;;;29.90;4.20;;;;;;;;;;5130574;27;20047;-60
2022/01/17 10:21:54;;;;;;;26.80;3.53;;;;;;;;;;5130969;27;20039;-62
2022/01/17 10:24:28;;;;;;;28.02;4.38;;;;;;;;;;5111981;28;20047;-61
2022/01/17 10:29:51;;;;;;;24.60;3.75;;;;;;;;;;5130679;28;20096;-62
2022/01/17 10:35:24;;;;;;;27.00;3.80;;;;;;;;;;5130727;27;20035;-61
2022/01/17 10:38:04;;;;;;;29.27;3.60;;;;;;;;;;5089629;28;20048;-61
2022/01/17 10:40:32;;;;;;;23.70;3.65;;;;;;;;;;5090842;28;20048;-61
2022/01/17 10:43:00;;;;;;;31.58;4.22;;;;;;;;;;5090115;28;20631;-59
2022/01/17 10:45:33;;;;;;;30.98;4.15;;;;;;;;;;5074025;28;20127;-61
2022/01/17 10:48:01;;;;;;;31.35;4.43;;;;;;;;;;5090385;28;20095;-61
2022/01/17 10:50:34;;;;;;;35.95;4.05;;;;;;;;;;5090628;28;20182;-61
2022/01/17 10:53:02;;;;;;;24.88;3.47;;;;;;;;;;5090857;28;20063;-62
2022/01/17 10:55:33;;;;;;;35.65;5.55;;;;;;;;;;5090730;28;20051;-61
2022/01/17 10:58:03;;;;;;;24.20;4.13;;;;;;;;;;5089801;28;20047;-59
2022/01/17 11:00:35;;;;;;;32.78;4.72;;;;;;;;;;5090841;28;20039;-61
2022/01/17 11:03:03;;;;;;;30.98;3.97;;;;;;;;;;5090545;28;20441;-61
2022/01/17 11:05:31;;;;;;;25.00;4.30;;;;;;;;;;5090913;28;20032;-61
2022/01/17 11:08:00;;;;;;;34.08;4.72;;;;;;;;;;5089172;28;20403;-61
2022/01/17 11:10:28;;;;;;;38.88;4.88;;;;;;;;;;5090273;28;20047;-63
2022/01/17 11:12:55;;;;;;;30.15;4.10;;;;;;;;;;5090042;28;20031;-61
2022/01/17 11:15:22;;;;;;;29.77;4.05;;;;;;;;;;5121001;27;20047;-61
2022/01/17 11:17:52;;;;;;;38.03;4.03;;;;;;;;;;5133522;27;20049;-61
2022/01/17 11:20:20;;;;;;;36.28;5.47;;;;;;;;;;5132747;27;20456;-61
2022/01/17 11:22:47;;;;;;;34.58;5.88;;;;;;;;;;5133186;27;20035;-59
2022/01/17 11:25:15;;;;;;;29.98;4.63;;;;;;;;;;5133158;27;20508;-62
2022/01/17 11:27:41;;;;;;;31.88;3.95;;;;;;;;;;5133165;27;20438;-60
2022/01/17 11:30:08;;;;;;;27.83;4.15;;;;;;;;;;5131993;27;20118;-61
2022/01/17 11:32:34;;;;;;;26.70;4.63;;;;;;;;;;5133177;27;20039;-60
2022/01/17 11:35:04;;;;;;;33.05;4.53;;;;;;;;;;5133391;27;20084;-61
2022/01/17 11:37:35;;;;;;;32.90;4.88;;;;;;;;;;5133287;27;20043;-62
2022/01/17 11:40:01;;;;;;;41.70;4.65;;;;;;;;;;5133360;27;20041;-60
2022/01/17 11:42:33;;;;;;;32.50;5.57;;;;;;;;;;5132700;27;20054;-62
2022/01/17 11:45:00;;;;;;;32.70;4.65;;;;;;;;;;5114044;27;20412;-60
2022/01/17 11:47:44;;;;;;;36.53;5.30;;;;;;;;;;5130960;27;20130;-62
2022/01/17 11:50:33;;;;;;;29.27;5.20;;;;;;;;;;5130187;27;20122;-61
2022/01/17 11:53:00;;;;;;;36.67;4.82;;;;;;;;;;5131722;27;20092;-61
2022/01/17 11:55:46;;;;;;;32.75;5.28;;;;;;;;;;5132029;27;20087;-63
2022/01/17 11:58:29;;;;;;;39.97;6.78;;;;;;;;;;5132204;27;20122;-62
2022/01/17 12:00:57;;;;;;;;;;;12.60;99.90;;;;;;5131404;27;20031;-61
2022/01/17 12:03:25;;;;;;;35.33;4.82;;;;;;;;;;5129755;27;20004;-61
2022/01/17 12:05:52;;;;;;;26.30;4.03;;;;;;;;;;5132047;27;20031;-63
2022/01/17 12:08:20;;;;;;;34.92;5.40;;;;;;;;;;5132431;27;20396;-61
2022/01/17 12:10:47;;;;;;;32.90;5.13;;;;;;;;;;5132072;27;20046;-62
2022/01/17 12:15:58;;;;;;;33.10;5.22;;;;;;;;;;5132105;27;20035;-61
2022/01/17 12:18:31;;;;;;;30.85;4.50;;;;;;;;;;5129566;27;20047;-61
2022/01/17 12:20:57;;;;;;;33.13;5.13;;;;;;;;;;5131582;27;20065;-62
2022/01/17 12:23:25;;;;;;;35.45;4.97;;;;;;;;;;5131876;27;20042;-61
2022/01/17 12:25:51;;;;;;;32.83;5.05;;;;;;;;;;5131844;27;20389;-61
2022/01/17 12:28:17;;;;;;;28.65;5.00;;;;;;;;;;5130842;27;20443;-62
2022/01/17 12:30:45;;;;;;;35.60;4.82;;;;;;;;;;5130985;27;20035;-62
2022/01/17 12:33:28;;;;;;;35.60;5.50;;;;;;;;;;5131804;27;20083;-63
2022/01/17 12:35:55;;;;;;;38.63;5.97;;;;;;;;;;5132163;27;20461;-62
2022/01/17 12:38:35;;;;;;;34.88;5.43;;;;;;;;;;5131304;27;20190;-61
2022/01/17 12:41:01;;;;;;;34.17;5.65;;;;;;;;;;5130093;27;20083;-61
2022/01/17 12:43:30;;;;;;;29.02;4.70;;;;;;;;;;5131592;27;20031;-61
2022/01/17 12:45:59;;;;;;;33.25;5.53;;;;;;;;;;5131658;27;20051;-61
2022/01/17 12:48:26;;;;;;;34.17;4.80;;;;;;;;;;5131160;27;20059;-61
2022/01/17 12:50:53;;;;;;;37.03;5.93;;;;;;;;;;5131611;27;20146;-62
2022/01/17 12:53:22;;;;;;;33.58;5.85;;;;;;;;;;5125336;27;20417;-62
2022/01/17 12:55:52;;;;;;;39.60;5.03;;;;;;;;;;5131133;27;20038;-61
2022/01/17 12:58:20;;;;;;;34.47;5.45;;;;;;;;;;5130947;27;20401;-59
2022/01/17 13:01:06;;;;;;;34.72;4.95;;;;;;;;;;5130829;27;20050;-60
2022/01/17 13:03:34;;;;;;;35.13;5.78;;;;;;;;;;5131364;27;20042;-59
2022/01/17 13:06:01;;;;;;;31.85;4.80;;;;;;;;;;5131009;27;20126;-60
2022/01/17 13:08:27;;;;;;;31.63;4.85;;;;;;;;;;5116795;27;20035;-60
2022/01/17 13:10:54;;;;;;;35.13;5.60;;;;;;;;;;5131348;27;20046;-62
2022/01/17 13:13:21;;;;;;;37.03;5.20;;;;;;;;;;5130913;27;20378;-62
2022/01/17 13:15:55;;;;;;;37.80;6.10;;;;;;;;;;5130265;27;20066;-61
2022/01/17 13:18:22;;;;;;;31.90;5.60;;;;;;;;;;5130033;27;20428;-62
2022/01/17 13:20:48;;;;;;;33.70;4.90;;;;;;;;;;5130287;27;20273;-63
2022/01/17 13:23:18;;;;;;;43.03;5.75;;;;;;;;;;5131481;27;20043;-62
2022/01/17 13:25:44;;;;;;;33.67;5.40;;;;;;;;;;5130937;27;20045;-63
2022/01/17 13:28:10;;;;;;;48.25;6.88;;;;;;;;;;5130838;27;20058;-61
2022/01/17 13:30:36;;;;;;;34.00;7.03;;;;;;;;;;5131446;27;20456;-61
2022/01/17 13:33:07;;;;;;;42.05;6.53;;;;;;;;;;5114874;28;20058;-62
2022/01/17 13:35:35;;;;;;;32.85;5.60;;;;;;;;;;5131147;27;20031;-63
2022/01/17 13:38:11;;;;;;;36.28;5.30;;;;;;;;;;5130957;27;20540;-62
2022/01/17 13:40:38;;;;;;;39.33;5.22;;;;;;;;;;5131240;28;20031;-62
2022/01/17 13:43:05;;;;;;;36.88;5.95;;;;;;;;;;5129846;28;20046;-62
2022/01/17 13:45:42;;;;;;;38.88;5.60;;;;;;;;;;5122727;28;20111;-61
2022/01/17 13:48:13;;;;;;;41.80;5.80;;;;;;;;;;5130697;28;20137;-62
2022/01/17 13:51:00;;;;;;;34.72;6.25;;;;;;;;;;5131050;28;20050;-62
2022/01/17 13:53:27;;;;;;;36.75;5.55;;;;;;;;;;5131327;27;20520;-61
2022/01/17 13:55:55;;;;;;;39.28;5.32;;;;;;;;;;5130959;28;20035;-61
2022/01/17 13:58:21;;;;;;;44.28;5.05;;;;;;;;;;5130868;28;20046;-60
2022/01/17 14:00:53;;;;;;;40.83;6.13;;;;;;;;;;5131392;28;20473;-61
2022/01/17 14:03:23;;;;;;;40.35;6.35;;;;;;;;;;5131086;27;20118;-62
2022/01/17 14:05:51;;;;;;;32.97;5.18;;;;;;;;;;5131062;28;20046;-62
2022/01/17 14:08:17;;;;;;;35.70;6.50;;;;;;;;;;5130573;28;20392;-61
2022/01/17 14:10:48;;;;;;;33.28;4.85;;;;;;;;;;5132605;27;20423;-60
2022/01/17 14:13:17;;;;;;;36.40;5.28;;;;;;;;;;5134965;27;20070;-60
2022/01/17 14:15:43;;;;;;;34.15;5.93;;;;;;;;;;5134850;27;20045;-62
2022/01/17 14:18:10;;;;;;;37.63;4.85;;;;;;;;;;5134597;27;20452;-62
2022/01/17 14:20:38;;;;;;;43.38;7.78;;;;;;;;;;5134915;27;20038;-61
2022/01/17 14:23:04;;;;;;;35.25;5.05;;;;;;;;;;5134817;27;20417;-61
2022/01/17 14:25:30;;;;;;;35.35;6.78;;;;;;;;;;5134949;27;20023;-62
2022/01/17 14:27:58;;;;;;;38.40;6.28;;;;;;;;;;5134669;27;20493;-62
2022/01/17 14:30:28;;;;;;;35.22;4.93;;;;;;;;;;5134293;27;20451;-60
2022/01/17 14:33:09;;;;;;;35.90;5.20;;;;;;;;;;5134534;27;20042;-61
2022/01/17 14:35:35;;;;;;;37.60;5.18;;;;;;;;;;5134631;27;20071;-62
2022/01/17 14:38:01;;;;;;;26.73;4.25;;;;;;;;;;5134539;27;20507;-63
2022/01/17 14:40:31;;;;;;;30.70;4.95;;;;;;;;;;5134123;27;20035;-61
2022/01/17 14:43:09;;;;;;;32.50;5.97;;;;;;;;;;5134372;27;20071;-61
2022/01/17 14:45:35;;;;;;;30.33;4.78;;;;;;;;;;5134703;27;20108;-61
2022/01/17 14:48:01;;;;;;;38.85;6.15;;;;;;;;;;5133877;27;20066;-60
2022/01/17 14:50:28;;;;;;;39.60;5.43;;;;;;;;;;5134005;27;20043;-60
2022/01/17 14:52:55;;;;;;;35.40;4.43;;;;;;;;;;5134304;27;20039;-62
2022/01/17 14:59:30;;;;;;;32.83;4.25;;;;;;;;;;5134190;27;20043;-61
2022/01/17 15:01:14;;;;;;;34.05;6.82;;;;;;;;;;5117165;27;20057;-61
2022/01/17 15:03:41;;;;;;;30.88;4.20;;;;;;;;;;5134271;27;20469;-61
2022/01/17 15:06:09;;;;;;;30.42;5.10;;;;;;;;;;5115721;27;20039;-62
2022/01/17 15:08:35;;;;;;;36.17;4.25;;;;;;;;;;5134019;27;20508;-60
2022/01/17 15:11:01;;;;;;;32.95;3.95;;;;;;;;;;5133825;27;20039;-62
2022/01/17 15:13:27;;;;;;;33.55;5.57;;;;;;;;;;5133953;27;20117;-63